Denver, CO (80234)

11:37 PM MST on February 07, 2016 (GMT -0700)
APRSWXNET | | Change Station
CLOSE
Current Station
Personal Weather Station
Location: Denver, CO
Elevation: 5324 ft
Nearby Weather Stations

Elev 5324 ft 39.90 °N, 105.03 °W | Updated 24 minutes ago

Overcast
Overcast
25 °F
Feels Like 18 °F
N
6
Wind Variable Wind from SSE
Gusts 0.0 mph

Today
High -- | Low -- °F
--% Chance of Precip.
Yesterday
High -- | Low -- °F
Precip. -- in
Pressure 30.52 in
Visibility 10.0 miles
Clouds Few 5000 ft
Scattered Clouds 9500 ft
Scattered Clouds 16000 ft
Windchill 18 °F
Dew Point 16 °F
Humidity 69%
Rainfall in
Snow Depth Not available.
7:02 AM 5:26 PM
Waning Crescent, 0% visible
METAR KAPA 080553Z 15012KT 10SM FEW050 SCT095 SCT160 M07/M09 A3037 RMK AO2 SLP335 T10671089 11033 21072 50004
Pressure 30.52 in
Visibility 10.0 miles
Clouds Few 5000 ft
Scattered Clouds 9500 ft
Scattered Clouds 16000 ft
Windchill 18 °F
Dew Point 16 °F
Humidity 69%
Rainfall in
Snow Depth Not available.
7:02 AM 5:26 PM
Waning Crescent, 0% visible
METAR KAPA 080553Z 15012KT 10SM FEW050 SCT095 SCT160 M07/M09 A3037 RMK AO2 SLP335 T10671089 11033 21072 50004

10-Day Weather Forecast

Almanac

Astronomy

Feb. 07, 2016 Rise Set
Actual Time
Civil Twilight
Nautical Twilight
Astronomical Twilight
Moon
Length of Visible Light
Length of Day
Tomorrow will be .
, % of the Moon is Illuminated

Today's Extremes

State Highs State Lows

Community

WunderPhotos

Upload Photos

1,891,395 photos uploaded!

WunderBlog® & News

Nearby

Air Quality

  Air Quality AQ Index Pollutant
Not available.

Snow Depth

Station Depth Elevation

Earthquake Activity

City Distance Mag. Time & Date
Minimum magnitude displayed is 2.5.

Coastal Water Temperatures

Place Temperature

Stations

Nearby Weather Stations

Station Location Temp. Windchill Dew Point Humidity Wind Precip. Elev Updated Type
                   

Watches & Warnings

There are currently no watches in effect.